KBIH/BIH METAR and TAF weather

Enter ICAO airport designator
Station Type Date Time Source
KBIH METAR 2018/01/19 16:56 UTC NOAA

KBIH 191656Z AUTO 04003KT 10SM CLR 12/M01 A2984 RMK AO2 SLP089 T01221011


Station Type Date Time Source
KBIH Decoded METAR 2018/01/19 16:56 UTC NOAA

BISHOP AIRPORT, CA, United States (KBIH) 37-22N 118-22W 1253M
Jan 19, 2018 - 11:56 AM EST / 2018.01.19 1656 UTC
Wind: from the NE (040 degrees) at 3 MPH (3 KT):0
Visibility: 10 mile(s):0
Sky conditions: clear
Temperature: 54.0 F (12.2 C)
Dew Point: 30.0 F (-1.1 C)
Relative Humidity: 39%
Pressure (altimeter): 29.84 in. Hg (1010 hPa)
ob: KBIH 191656Z AUTO 04003KT 10SM CLR 12/M01 A2984 RMK AO2 SLP089 T01221011
cycle: 17

Station Type Date Time Source
KBIH TAF 2018/01/19 18:36 UTC NOAA

TAF KBIH 191733Z 1918/2018 16008KT P6SM SCT120 BKN200
FM192300 33012KT P6SM SCT090 BKN120
FM200600 34009KT P6SM SCT090 BKN100
FM201700 35014G23KT P6SM SCT090


Example: see airport list